sensor_id;sensor_type;location;lat;lon;timestamp;temperature;humidity
20479;DHT22;10398;52.490;13.434;2023-11-19T00:01:57;5.70;99.90
20479;DHT22;10398;52.490;13.434;2023-11-19T00:04:22;5.70;99.90
20479;DHT22;10398;52.490;13.434;2023-11-19T00:06:48;5.80;99.90
20479;DHT22;10398;52.490;13.434;2023-11-19T00:09:14;5.80;99.90
20479;DHT22;10398;52.490;13.434;2023-11-19T00:11:42;5.80;99.90
20479;DHT22;10398;52.490;13.434;2023-11-19T00:14:07;5.80;99.90
20479;DHT22;10398;52.490;13.434;2023-11-19T00:16:34;5.80;99.90
20479;DHT22;10398;52.490;13.434;2023-11-19T00:19:00;5.80;99.90
20479;DHT22;10398;52.490;13.434;2023-11-19T00:21:25;5.80;99.90
20479;DHT22;10398;52.490;13.434;2023-11-19T00:23:54;5.70;99.90
20479;DHT22;10398;52.490;13.434;2023-11-19T00:26:19;5.70;99.90
20479;DHT22;10398;52.490;13.434;2023-11-19T00:28:45;5.60;99.90
20479;DHT22;10398;52.490;13.434;2023-11-19T00:31:13;5.70;99.90
20479;DHT22;10398;52.490;13.434;2023-11-19T00:33:39;5.80;99.90
20479;DHT22;10398;52.490;13.434;2023-11-19T00:36:05;5.80;99.90
20479;DHT22;10398;52.490;13.434;2023-11-19T00:38:31;5.80;99.90
20479;DHT22;10398;52.490;13.434;2023-11-19T00:40:57;6.00;99.90
20479;DHT22;10398;52.490;13.434;2023-11-19T00:43:22;6.00;99.90
20479;DHT22;10398;52.490;13.434;2023-11-19T00:45:48;6.00;99.90
20479;DHT22;10398;52.490;13.434;2023-11-19T00:48:16;5.90;99.90
20479;DHT22;10398;52.490;13.434;2023-11-19T00:50:42;5.90;99.90
20479;DHT22;10398;52.490;13.434;2023-11-19T00:53:09;5.90;99.90
20479;DHT22;10398;52.490;13.434;2023-11-19T00:55:35;5.90;99.90
20479;DHT22;10398;52.490;13.434;2023-11-19T00:58:01;5.90;99.90
20479;DHT22;10398;52.490;13.434;2023-11-19T01:00:26;5.90;99.90
20479;DHT22;10398;52.490;13.434;2023-11-19T01:02:52;5.90;99.90
20479;DHT22;10398;52.490;13.434;2023-11-19T01:05:18;5.90;99.90
20479;DHT22;10398;52.490;13.434;2023-11-19T01:07:47;5.80;99.90
20479;DHT22;10398;52.490;13.434;2023-11-19T01:10:13;5.90;99.90
20479;DHT22;10398;52.490;13.434;2023-11-19T01:12:38;5.90;99.90
20479;DHT22;10398;52.490;13.434;2023-11-19T01:15:05;5.90;99.90
20479;DHT22;10398;52.490;13.434;2023-11-19T01:17:31;5.80;99.90
20479;DHT22;10398;52.490;13.434;2023-11-19T01:19:57;5.80;99.90
20479;DHT22;10398;52.490;13.434;2023-11-19T01:22:23;5.70;99.90
20479;DHT22;10398;52.490;13.434;2023-11-19T01:24:48;5.70;99.90
20479;DHT22;10398;52.490;13.434;2023-11-19T01:27:14;5.70;99.90
20479;DHT22;10398;52.490;13.434;2023-11-19T01:29:40;5.60;99.90
20479;DHT22;10398;52.490;13.434;2023-11-19T01:32:06;5.70;99.90
20479;DHT22;10398;52.490;13.434;2023-11-19T01:34:32;5.70;99.90
20479;DHT22;10398;52.490;13.434;2023-11-19T01:36:57;5.80;99.90
20479;DHT22;10398;52.490;13.434;2023-11-19T01:39:23;5.80;99.90
20479;DHT22;10398;52.490;13.434;2023-11-19T01:41:48;5.90;99.90
20479;DHT22;10398;52.490;13.434;2023-11-19T01:44:14;5.90;99.90
20479;DHT22;10398;52.490;13.434;2023-11-19T01:46:44;6.00;99.90
20479;DHT22;10398;52.490;13.434;2023-11-19T01:49:17;5.80;99.90
20479;DHT22;10398;52.490;13.434;2023-11-19T01:51:44;5.90;99.90
20479;DHT22;10398;52.490;13.434;2023-11-19T01:54:11;5.90;99.90
20479;DHT22;10398;52.490;13.434;2023-11-19T01:56:39;5.90;99.90
20479;DHT22;10398;52.490;13.434;2023-11-19T01:59:11;5.80;99.90
20479;DHT22;10398;52.490;13.434;2023-11-19T02:01:39;5.90;99.90
20479;DHT22;10398;52.490;13.434;2023-11-19T02:04:08;5.80;99.90
20479;DHT22;10398;52.490;13.434;2023-11-19T02:06:37;5.90;99.90
20479;DHT22;10398;52.490;13.434;2023-11-19T02:09:06;5.90;99.90
20479;DHT22;10398;52.490;13.434;2023-11-19T02:11:33;6.00;99.90
20479;DHT22;10398;52.490;13.434;2023-11-19T02:14:00;5.90;99.90
20479;DHT22;10398;52.490;13.434;2023-11-19T02:16:26;5.80;99.90
20479;DHT22;10398;52.490;13.434;2023-11-19T02:18:51;5.70;99.90
20479;DHT22;10398;52.490;13.434;2023-11-19T02:21:17;5.80;99.90
20479;DHT22;10398;52.490;13.434;2023-11-19T02:23:43;5.80;99.90
20479;DHT22;10398;52.490;13.434;2023-11-19T02:28:36;5.70;99.90
20479;DHT22;10398;52.490;13.434;2023-11-19T02:31:02;5.80;99.90
20479;DHT22;10398;52.490;13.434;2023-11-19T02:33:30;5.90;99.90
20479;DHT22;10398;52.490;13.434;2023-11-19T02:35:56;5.90;99.90
20479;DHT22;10398;52.490;13.434;2023-11-19T02:38:21;6.00;99.90
20479;DHT22;10398;52.490;13.434;2023-11-19T02:40:48;5.90;99.90
20479;DHT22;10398;52.490;13.434;2023-11-19T02:43:14;5.90;99.90
20479;DHT22;10398;52.490;13.434;2023-11-19T02:45:40;6.00;99.90
20479;DHT22;10398;52.490;13.434;2023-11-19T02:48:06;6.00;99.90
20479;DHT22;10398;52.490;13.434;2023-11-19T02:50:31;6.00;99.90
20479;DHT22;10398;52.490;13.434;2023-11-19T02:52:57;6.10;99.90
20479;DHT22;10398;52.490;13.434;2023-11-19T02:55:23;6.00;99.90
20479;DHT22;10398;52.490;13.434;2023-11-19T02:57:50;6.00;99.90
20479;DHT22;10398;52.490;13.434;2023-11-19T03:00:17;6.10;99.90
20479;DHT22;10398;52.490;13.434;2023-11-19T03:02:46;6.10;99.90
20479;DHT22;10398;52.490;13.434;2023-11-19T03:05:13;6.20;99.90
20479;DHT22;10398;52.490;13.434;2023-11-19T03:07:43;6.10;99.90
20479;DHT22;10398;52.490;13.434;2023-11-19T03:10:13;6.00;99.90
20479;DHT22;10398;52.490;13.434;2023-11-19T03:12:42;6.00;99.90
20479;DHT22;10398;52.490;13.434;2023-11-19T03:15:09;6.10;99.90
20479;DHT22;10398;52.490;13.434;2023-11-19T03:17:38;6.20;99.90
20479;DHT22;10398;52.490;13.434;2023-11-19T03:20:09;6.10;99.90
20479;DHT22;10398;52.490;13.434;2023-11-19T03:22:38;6.10;99.90
20479;DHT22;10398;52.490;13.434;2023-11-19T03:25:04;6.10;99.90
20479;DHT22;10398;52.490;13.434;2023-11-19T03:27:30;6.10;99.90
20479;DHT22;10398;52.490;13.434;2023-11-19T03:29:55;6.10;99.90
20479;DHT22;10398;52.490;13.434;2023-11-19T03:32:21;6.20;99.90
20479;DHT22;10398;52.490;13.434;2023-11-19T03:34:47;6.20;99.90
20479;DHT22;10398;52.490;13.434;2023-11-19T03:37:12;6.30;99.90
20479;DHT22;10398;52.490;13.434;2023-11-19T03:39:42;6.20;99.90
20479;DHT22;10398;52.490;13.434;2023-11-19T03:42:07;6.20;99.90
20479;DHT22;10398;52.490;13.434;2023-11-19T03:44:33;6.20;99.90
20479;DHT22;10398;52.490;13.434;2023-11-19T03:46:58;6.10;99.90
20479;DHT22;10398;52.490;13.434;2023-11-19T03:49:24;5.90;99.90
20479;DHT22;10398;52.490;13.434;2023-11-19T03:51:50;5.90;99.90
20479;DHT22;10398;52.490;13.434;2023-11-19T03:54:15;5.80;99.90
20479;DHT22;10398;52.490;13.434;2023-11-19T03:56:41;5.80;99.90
20479;DHT22;10398;52.490;13.434;2023-11-19T03:59:06;5.70;99.90
20479;DHT22;10398;52.490;13.434;2023-11-19T04:01:33;5.70;99.90
20479;DHT22;10398;52.490;13.434;2023-11-19T04:03:59;5.80;99.90
20479;DHT22;10398;52.490;13.434;2023-11-19T04:06:25;5.80;99.90
20479;DHT22;10398;52.490;13.434;2023-11-19T04:08:51;5.70;99.90
20479;DHT22;10398;52.490;13.434;2023-11-19T04:11:17;5.60;99.90
20479;DHT22;10398;52.490;13.434;2023-11-19T04:13:42;5.60;99.90
20479;DHT22;10398;52.490;13.434;2023-11-19T04:16:09;5.60;99.90
20479;DHT22;10398;52.490;13.434;2023-11-19T04:18:35;5.70;99.90
20479;DHT22;10398;52.490;13.434;2023-11-19T04:21:01;5.70;99.90
20479;DHT22;10398;52.490;13.434;2023-11-19T04:23:26;5.80;99.90
20479;DHT22;10398;52.490;13.434;2023-11-19T04:25:52;5.70;99.90
20479;DHT22;10398;52.490;13.434;2023-11-19T04:28:17;5.80;99.90
20479;DHT22;10398;52.490;13.434;2023-11-19T04:30:43;5.70;99.90
20479;DHT22;10398;52.490;13.434;2023-11-19T04:33:09;5.70;99.90
20479;DHT22;10398;52.490;13.434;2023-11-19T04:35:35;5.80;99.90
20479;DHT22;10398;52.490;13.434;2023-11-19T04:38:01;5.70;99.90
20479;DHT22;10398;52.490;13.434;2023-11-19T04:40:27;5.70;99.90
20479;DHT22;10398;52.490;13.434;2023-11-19T04:42:53;5.80;99.90
20479;DHT22;10398;52.490;13.434;2023-11-19T04:45:18;5.70;99.90
20479;DHT22;10398;52.490;13.434;2023-11-19T04:47:44;5.70;99.90
20479;DHT22;10398;52.490;13.434;2023-11-19T04:50:10;5.80;99.90
20479;DHT22;10398;52.490;13.434;2023-11-19T04:52:38;5.90;99.90
20479;DHT22;10398;52.490;13.434;2023-11-19T04:55:06;5.90;99.90
20479;DHT22;10398;52.490;13.434;2023-11-19T04:57:31;6.00;99.90
20479;DHT22;10398;52.490;13.434;2023-11-19T04:59:58;5.90;99.90
20479;DHT22;10398;52.490;13.434;2023-11-19T05:02:24;5.90;99.90
20479;DHT22;10398;52.490;13.434;2023-11-19T05:04:49;5.90;99.90
20479;DHT22;10398;52.490;13.434;2023-11-19T05:07:15;5.90;99.90
20479;DHT22;10398;52.490;13.434;2023-11-19T05:09:41;5.70;99.90
20479;DHT22;10398;52.490;13.434;2023-11-19T05:12:08;5.60;99.90
20479;DHT22;10398;52.490;13.434;2023-11-19T05:14:37;5.70;99.90
20479;DHT22;10398;52.490;13.434;2023-11-19T05:17:03;5.70;99.90
20479;DHT22;10398;52.490;13.434;2023-11-19T05:19:29;5.80;99.90
20479;DHT22;10398;52.490;13.434;2023-11-19T05:21:54;5.80;99.90
20479;DHT22;10398;52.490;13.434;2023-11-19T05:24:20;5.90;99.90
20479;DHT22;10398;52.490;13.434;2023-11-19T05:26:45;5.80;99.90
20479;DHT22;10398;52.490;13.434;2023-11-19T05:29:12;5.90;99.90
20479;DHT22;10398;52.490;13.434;2023-11-19T05:31:38;5.90;99.90
20479;DHT22;10398;52.490;13.434;2023-11-19T05:34:03;5.90;99.90
20479;DHT22;10398;52.490;13.434;2023-11-19T05:36:29;5.90;99.90
20479;DHT22;10398;52.490;13.434;2023-11-19T05:38:55;5.90;99.90
20479;DHT22;10398;52.490;13.434;2023-11-19T05:41:21;5.90;99.90
20479;DHT22;10398;52.490;13.434;2023-11-19T05:43:46;6.00;99.90
20479;DHT22;10398;52.490;13.434;2023-11-19T05:46:12;5.90;99.90
20479;DHT22;10398;52.490;13.434;2023-11-19T05:48:39;5.90;99.90
20479;DHT22;10398;52.490;13.434;2023-11-19T05:51:05;5.90;99.90
20479;DHT22;10398;52.490;13.434;2023-11-19T05:53:31;6.00;99.90
20479;DHT22;10398;52.490;13.434;2023-11-19T05:55:57;5.90;99.90
20479;DHT22;10398;52.490;13.434;2023-11-19T05:58:26;6.00;99.90
20479;DHT22;10398;52.490;13.434;2023-11-19T06:00:54;6.00;99.90
20479;DHT22;10398;52.490;13.434;2023-11-19T06:03:20;6.00;99.90
20479;DHT22;10398;52.490;13.434;2023-11-19T06:05:47;5.90;99.90
20479;DHT22;10398;52.490;13.434;2023-11-19T06:08:13;5.90;99.90
20479;DHT22;10398;52.490;13.434;2023-11-19T06:10:44;5.80;99.90
20479;DHT22;10398;52.490;13.434;2023-11-19T06:13:11;5.80;99.90
20479;DHT22;10398;52.490;13.434;2023-11-19T06:15:38;5.80;99.90
20479;DHT22;10398;52.490;13.434;2023-11-19T06:18:05;5.80;99.90
20479;DHT22;10398;52.490;13.434;2023-11-19T06:20:31;5.80;99.90
20479;DHT22;10398;52.490;13.434;2023-11-19T06:22:57;5.80;99.90
20479;DHT22;10398;52.490;13.434;2023-11-19T06:25:23;5.80;99.90
20479;DHT22;10398;52.490;13.434;2023-11-19T06:27:50;5.90;99.90
20479;DHT22;10398;52.490;13.434;2023-11-19T06:30:15;5.90;99.90
20479;DHT22;10398;52.490;13.434;2023-11-19T06:32:42;5.90;99.90
20479;DHT22;10398;52.490;13.434;2023-11-19T06:35:08;6.00;99.90
20479;DHT22;10398;52.490;13.434;2023-11-19T06:37:34;5.90;99.90
20479;DHT22;10398;52.490;13.434;2023-11-19T06:40:00;6.00;99.90
20479;DHT22;10398;52.490;13.434;2023-11-19T06:42:25;5.90;99.90
20479;DHT22;10398;52.490;13.434;2023-11-19T06:44:51;5.90;99.90
20479;DHT22;10398;52.490;13.434;2023-11-19T06:47:17;5.90;99.90
20479;DHT22;10398;52.490;13.434;2023-11-19T06:49:46;6.00;99.90
20479;DHT22;10398;52.490;13.434;2023-11-19T06:52:12;5.90;99.90
20479;DHT22;10398;52.490;13.434;2023-11-19T06:54:41;6.00;99.90
20479;DHT22;10398;52.490;13.434;2023-11-19T06:57:06;6.00;99.90
20479;DHT22;10398;52.490;13.434;2023-11-19T06:59:33;6.00;99.90
20479;DHT22;10398;52.490;13.434;2023-11-19T07:01:58;6.10;99.90
20479;DHT22;10398;52.490;13.434;2023-11-19T07:04:24;6.20;99.90
20479;DHT22;10398;52.490;13.434;2023-11-19T07:06:50;6.20;99.90
20479;DHT22;10398;52.490;13.434;2023-11-19T07:09:17;6.10;99.90
20479;DHT22;10398;52.490;13.434;2023-11-19T07:11:44;6.20;99.90
20479;DHT22;10398;52.490;13.434;2023-11-19T07:14:11;6.30;99.90
20479;DHT22;10398;52.490;13.434;2023-11-19T07:16:38;6.30;99.90
20479;DHT22;10398;52.490;13.434;2023-11-19T07:19:05;6.30;99.90
20479;DHT22;10398;52.490;13.434;2023-11-19T07:21:31;6.30;99.90
20479;DHT22;10398;52.490;13.434;2023-11-19T07:23:58;6.40;99.90
20479;DHT22;10398;52.490;13.434;2023-11-19T07:26:24;6.40;99.90
20479;DHT22;10398;52.490;13.434;2023-11-19T07:28:50;6.30;99.90
20479;DHT22;10398;52.490;13.434;2023-11-19T07:31:16;6.30;99.90
20479;DHT22;10398;52.490;13.434;2023-11-19T07:33:42;6.40;99.90
20479;DHT22;10398;52.490;13.434;2023-11-19T07:36:11;6.40;99.90
20479;DHT22;10398;52.490;13.434;2023-11-19T07:38:37;6.50;99.90
20479;DHT22;10398;52.490;13.434;2023-11-19T07:41:04;6.40;99.90
20479;DHT22;10398;52.490;13.434;2023-11-19T07:43:30;6.50;99.90
20479;DHT22;10398;52.490;13.434;2023-11-19T07:45:56;6.50;99.90
20479;DHT22;10398;52.490;13.434;2023-11-19T07:48:25;6.50;99.90
20479;DHT22;10398;52.490;13.434;2023-11-19T07:50:52;6.70;99.90
20479;DHT22;10398;52.490;13.434;2023-11-19T07:53:19;6.70;99.90
20479;DHT22;10398;52.490;13.434;2023-11-19T07:55:45;6.60;99.90
20479;DHT22;10398;52.490;13.434;2023-11-19T07:58:10;6.60;99.90
20479;DHT22;10398;52.490;13.434;2023-11-19T08:00:36;6.60;99.90
20479;DHT22;10398;52.490;13.434;2023-11-19T08:03:03;6.70;99.90
20479;DHT22;10398;52.490;13.434;2023-11-19T08:05:28;6.60;99.90
20479;DHT22;10398;52.490;13.434;2023-11-19T08:07:54;6.60;99.90
20479;DHT22;10398;52.490;13.434;2023-11-19T08:10:20;6.70;99.90
20479;DHT22;10398;52.490;13.434;2023-11-19T08:12:45;6.70;99.90
20479;DHT22;10398;52.490;13.434;2023-11-19T08:15:11;6.80;99.90
20479;DHT22;10398;52.490;13.434;2023-11-19T08:17:37;6.90;99.90
20479;DHT22;10398;52.490;13.434;2023-11-19T08:20:03;6.90;99.90
20479;DHT22;10398;52.490;13.434;2023-11-19T08:22:30;7.00;99.90
20479;DHT22;10398;52.490;13.434;2023-11-19T08:24:56;7.10;99.90
20479;DHT22;10398;52.490;13.434;2023-11-19T08:27:22;7.10;99.90
20479;DHT22;10398;52.490;13.434;2023-11-19T08:29:54;7.10;99.90
20479;DHT22;10398;52.490;13.434;2023-11-19T08:32:27;7.10;99.90
20479;DHT22;10398;52.490;13.434;2023-11-19T08:34:53;7.30;99.90
20479;DHT22;10398;52.490;13.434;2023-11-19T08:37:18;7.40;99.90
20479;DHT22;10398;52.490;13.434;2023-11-19T08:39:49;7.40;99.90
20479;DHT22;10398;52.490;13.434;2023-11-19T08:42:16;7.40;99.90
20479;DHT22;10398;52.490;13.434;2023-11-19T08:44:41;7.40;99.90
20479;DHT22;10398;52.490;13.434;2023-11-19T08:47:12;7.50;99.90
20479;DHT22;10398;52.490;13.434;2023-11-19T08:49:39;7.60;99.90
20479;DHT22;10398;52.490;13.434;2023-11-19T08:52:05;7.70;99.90
20479;DHT22;10398;52.490;13.434;2023-11-19T08:54:32;7.70;99.90
20479;DHT22;10398;52.490;13.434;2023-11-19T08:56:59;7.70;99.90
20479;DHT22;10398;52.490;13.434;2023-11-19T08:59:25;7.90;99.90
20479;DHT22;10398;52.490;13.434;2023-11-19T09:01:50;7.90;99.90
20479;DHT22;10398;52.490;13.434;2023-11-19T09:04:16;8.00;99.90
20479;DHT22;10398;52.490;13.434;2023-11-19T09:06:42;8.00;99.90
20479;DHT22;10398;52.490;13.434;2023-11-19T09:09:08;8.10;99.90
20479;DHT22;10398;52.490;13.434;2023-11-19T09:11:35;8.10;99.90
20479;DHT22;10398;52.490;13.434;2023-11-19T09:14:02;8.30;99.90
20479;DHT22;10398;52.490;13.434;2023-11-19T09:16:27;8.30;99.90
20479;DHT22;10398;52.490;13.434;2023-11-19T09:18:53;8.30;99.90
20479;DHT22;10398;52.490;13.434;2023-11-19T09:21:19;8.40;99.90
20479;DHT22;10398;52.490;13.434;2023-11-19T09:23:44;8.50;99.90
20479;DHT22;10398;52.490;13.434;2023-11-19T09:26:10;8.60;99.90
20479;DHT22;10398;52.490;13.434;2023-11-19T09:28:36;8.60;99.90
20479;DHT22;10398;52.490;13.434;2023-11-19T09:31:01;8.60;99.90
20479;DHT22;10398;52.490;13.434;2023-11-19T09:33:30;8.70;99.90
20479;DHT22;10398;52.490;13.434;2023-11-19T09:35:56;8.80;99.90
20479;DHT22;10398;52.490;13.434;2023-11-19T09:38:23;8.90;99.90
20479;DHT22;10398;52.490;13.434;2023-11-19T09:40:48;8.90;99.90
20479;DHT22;10398;52.490;13.434;2023-11-19T09:43:18;8.90;99.90
20479;DHT22;10398;52.490;13.434;2023-11-19T09:45:50;9.10;99.90
20479;DHT22;10398;52.490;13.434;2023-11-19T09:48:17;9.10;99.90
20479;DHT22;10398;52.490;13.434;2023-11-19T09:50:48;9.10;99.90
20479;DHT22;10398;52.490;13.434;2023-11-19T09:53:14;9.50;99.90
20479;DHT22;10398;52.490;13.434;2023-11-19T09:55:41;9.90;99.90
20479;DHT22;10398;52.490;13.434;2023-11-19T09:58:07;10.00;99.90
20479;DHT22;10398;52.490;13.434;2023-11-19T10:00:33;10.20;99.90
20479;DHT22;10398;52.490;13.434;2023-11-19T10:03:00;10.20;99.90
20479;DHT22;10398;52.490;13.434;2023-11-19T10:05:26;10.20;99.90
20479;DHT22;10398;52.490;13.434;2023-11-19T10:07:52;10.30;99.90
20479;DHT22;10398;52.490;13.434;2023-11-19T10:10:18;10.30;99.90
20479;DHT22;10398;52.490;13.434;2023-11-19T10:12:47;10.30;99.90
20479;DHT22;10398;52.490;13.434;2023-11-19T10:15:23;10.30;99.90
20479;DHT22;10398;52.490;13.434;2023-11-19T10:17:56;10.20;99.90
20479;DHT22;10398;52.490;13.434;2023-11-19T10:20:22;10.20;99.90
20479;DHT22;10398;52.490;13.434;2023-11-19T10:22:48;10.30;99.90
20479;DHT22;10398;52.490;13.434;2023-11-19T10:25:25;10.30;99.90
20479;DHT22;10398;52.490;13.434;2023-11-19T10:27:54;10.40;99.90
20479;DHT22;10398;52.490;13.434;2023-11-19T10:30:28;10.40;99.90
20479;DHT22;10398;52.490;13.434;2023-11-19T10:35:34;10.50;99.90
20479;DHT22;10398;52.490;13.434;2023-11-19T10:38:15;10.60;99.90
20479;DHT22;10398;52.490;13.434;2023-11-19T10:40:41;10.90;99.90
20479;DHT22;10398;52.490;13.434;2023-11-19T10:43:07;11.10;99.90
20479;DHT22;10398;52.490;13.434;2023-11-19T10:45:34;11.10;99.90
20479;DHT22;10398;52.490;13.434;2023-11-19T10:48:00;11.20;99.90
20479;DHT22;10398;52.490;13.434;2023-11-19T10:50:27;11.30;99.90
20479;DHT22;10398;52.490;13.434;2023-11-19T10:52:57;11.20;99.90
20479;DHT22;10398;52.490;13.434;2023-11-19T10:55:29;11.30;99.90
20479;DHT22;10398;52.490;13.434;2023-11-19T10:58:00;11.20;99.90
20479;DHT22;10398;52.490;13.434;2023-11-19T11:00:29;11.30;99.90
20479;DHT22;10398;52.490;13.434;2023-11-19T11:03:01;11.30;99.90
20479;DHT22;10398;52.490;13.434;2023-11-19T11:05:27;11.40;99.90
20479;DHT22;10398;52.490;13.434;2023-11-19T11:07:55;11.40;99.90
20479;DHT22;10398;52.490;13.434;2023-11-19T11:10:22;11.40;99.90
20479;DHT22;10398;52.490;13.434;2023-11-19T11:12:52;11.40;99.90
20479;DHT22;10398;52.490;13.434;2023-11-19T11:15:27;11.50;99.90
20479;DHT22;10398;52.490;13.434;2023-11-19T11:17:59;11.40;99.90
20479;DHT22;10398;52.490;13.434;2023-11-19T11:20:32;11.50;99.90
20479;DHT22;10398;52.490;13.434;2023-11-19T11:28:39;11.70;99.90
20479;DHT22;10398;52.490;13.434;2023-11-19T11:39:25;12.00;99.90
20479;DHT22;10398;52.490;13.434;2023-11-19T11:45:07;12.60;99.90
20479;DHT22;10398;52.490;13.434;2023-11-19T11:50:14;13.40;99.90
20479;DHT22;10398;52.490;13.434;2023-11-19T11:56:12;13.70;99.90
20479;DHT22;10398;52.490;13.434;2023-11-19T11:58:13;13.70;99.90
20479;DHT22;10398;52.490;13.434;2023-11-19T12:00:40;13.60;99.90
20479;DHT22;10398;52.490;13.434;2023-11-19T12:03:07;13.50;99.90
20479;DHT22;10398;52.490;13.434;2023-11-19T12:05:46;13.40;99.90
20479;DHT22;10398;52.490;13.434;2023-11-19T12:08:13;13.30;99.90
20479;DHT22;10398;52.490;13.434;2023-11-19T12:10:45;13.10;99.90
20479;DHT22;10398;52.490;13.434;2023-11-19T12:13:13;13.00;99.90
20479;DHT22;10398;52.490;13.434;2023-11-19T12:18:32;12.90;99.90
20479;DHT22;10398;52.490;13.434;2023-11-19T12:21:01;12.80;99.90
20479;DHT22;10398;52.490;13.434;2023-11-19T12:23:30;12.70;99.90
20479;DHT22;10398;52.490;13.434;2023-11-19T12:25:57;12.70;99.90
20479;DHT22;10398;52.490;13.434;2023-11-19T12:28:23;12.70;99.90
20479;DHT22;10398;52.490;13.434;2023-11-19T12:30:52;12.60;99.90
20479;DHT22;10398;52.490;13.434;2023-11-19T12:33:19;12.60;99.90
20479;DHT22;10398;52.490;13.434;2023-11-19T12:35:46;12.60;99.90
20479;DHT22;10398;52.490;13.434;2023-11-19T12:38:22;12.60;99.90
20479;DHT22;10398;52.490;13.434;2023-11-19T12:41:06;12.60;99.90
20479;DHT22;10398;52.490;13.434;2023-11-19T12:43:32;12.50;99.90
20479;DHT22;10398;52.490;13.434;2023-11-19T12:46:00;12.50;99.90
20479;DHT22;10398;52.490;13.434;2023-11-19T12:48:25;12.50;99.90
20479;DHT22;10398;52.490;13.434;2023-11-19T12:50:58;12.40;99.90
20479;DHT22;10398;52.490;13.434;2023-11-19T12:53:25;12.50;99.90
20479;DHT22;10398;52.490;13.434;2023-11-19T12:55:52;12.40;99.90
20479;DHT22;10398;52.490;13.434;2023-11-19T12:58:34;12.40;99.90
20479;DHT22;10398;52.490;13.434;2023-11-19T13:01:03;12.40;99.90
20479;DHT22;10398;52.490;13.434;2023-11-19T13:03:30;12.40;99.90
20479;DHT22;10398;52.490;13.434;2023-11-19T13:06:10;12.50;99.90
20479;DHT22;10398;52.490;13.434;2023-11-19T13:08:49;12.50;99.90
20479;DHT22;10398;52.490;13.434;2023-11-19T13:11:31;12.40;99.90
20479;DHT22;10398;52.490;13.434;2023-11-19T13:14:02;12.50;99.90
20479;DHT22;10398;52.490;13.434;2023-11-19T13:16:31;12.40;99.90
20479;DHT22;10398;52.490;13.434;2023-11-19T13:18:57;12.40;99.90
20479;DHT22;10398;52.490;13.434;2023-11-19T13:21:24;12.50;99.90
20479;DHT22;10398;52.490;13.434;2023-11-19T13:23:50;12.50;99.90
20479;DHT22;10398;52.490;13.434;2023-11-19T13:26:16;12.60;99.90
20479;DHT22;10398;52.490;13.434;2023-11-19T13:28:42;12.60;99.90
20479;DHT22;10398;52.490;13.434;2023-11-19T13:31:07;12.60;99.90
20479;DHT22;10398;52.490;13.434;2023-11-19T13:33:34;12.60;99.90
20479;DHT22;10398;52.490;13.434;2023-11-19T13:36:00;12.60;99.90
20479;DHT22;10398;52.490;13.434;2023-11-19T13:38:34;12.60;99.90
20479;DHT22;10398;52.490;13.434;2023-11-19T13:41:03;12.50;99.90
20479;DHT22;10398;52.490;13.434;2023-11-19T13:43:29;12.50;99.90
20479;DHT22;10398;52.490;13.434;2023-11-19T13:45:56;12.50;99.90
20479;DHT22;10398;52.490;13.434;2023-11-19T13:48:22;12.40;99.90
20479;DHT22;10398;52.490;13.434;2023-11-19T13:50:48;12.40;99.90
20479;DHT22;10398;52.490;13.434;2023-11-19T13:53:13;12.50;99.90
20479;DHT22;10398;52.490;13.434;2023-11-19T13:55:39;12.50;99.90
20479;DHT22;10398;52.490;13.434;2023-11-19T13:58:05;12.50;99.90
20479;DHT22;10398;52.490;13.434;2023-11-19T14:00:31;12.60;99.90
20479;DHT22;10398;52.490;13.434;2023-11-19T14:02:56;12.60;99.90
20479;DHT22;10398;52.490;13.434;2023-11-19T14:05:22;12.70;99.90
20479;DHT22;10398;52.490;13.434;2023-11-19T14:07:48;12.70;99.90
20479;DHT22;10398;52.490;13.434;2023-11-19T14:10:15;12.70;99.90
20479;DHT22;10398;52.490;13.434;2023-11-19T14:12:41;12.70;99.90
20479;DHT22;10398;52.490;13.434;2023-11-19T14:15:08;12.70;99.90
20479;DHT22;10398;52.490;13.434;2023-11-19T14:17:42;12.70;99.90
20479;DHT22;10398;52.490;13.434;2023-11-19T14:20:09;12.60;99.90
20479;DHT22;10398;52.490;13.434;2023-11-19T14:22:43;12.60;99.90
20479;DHT22;10398;52.490;13.434;2023-11-19T14:25:10;12.60;99.90
20479;DHT22;10398;52.490;13.434;2023-11-19T14:27:41;12.60;99.90
20479;DHT22;10398;52.490;13.434;2023-11-19T14:30:08;12.50;99.90
20479;DHT22;10398;52.490;13.434;2023-11-19T14:32:36;12.50;99.90
20479;DHT22;10398;52.490;13.434;2023-11-19T14:35:03;12.40;99.90
20479;DHT22;10398;52.490;13.434;2023-11-19T14:37:29;12.40;99.90
20479;DHT22;10398;52.490;13.434;2023-11-19T14:39:58;12.50;99.90
20479;DHT22;10398;52.490;13.434;2023-11-19T14:42:24;12.40;99.90
20479;DHT22;10398;52.490;13.434;2023-11-19T14:44:53;12.40;99.90
20479;DHT22;10398;52.490;13.434;2023-11-19T14:47:20;12.40;99.90
20479;DHT22;10398;52.490;13.434;2023-11-19T14:49:46;12.30;99.90
20479;DHT22;10398;52.490;13.434;2023-11-19T14:52:11;12.40;99.90
20479;DHT22;10398;52.490;13.434;2023-11-19T14:54:37;12.40;99.90
20479;DHT22;10398;52.490;13.434;2023-11-19T14:57:06;12.30;99.90
20479;DHT22;10398;52.490;13.434;2023-11-19T14:59:34;12.30;99.90
20479;DHT22;10398;52.490;13.434;2023-11-19T15:02:00;12.30;99.90
20479;DHT22;10398;52.490;13.434;2023-11-19T15:04:26;12.30;99.90
20479;DHT22;10398;52.490;13.434;2023-11-19T15:06:52;12.30;99.90
20479;DHT22;10398;52.490;13.434;2023-11-19T15:09:18;12.40;99.90
20479;DHT22;10398;52.490;13.434;2023-11-19T15:11:44;12.40;99.90
20479;DHT22;10398;52.490;13.434;2023-11-19T15:14:13;12.30;99.90
20479;DHT22;10398;52.490;13.434;2023-11-19T15:16:42;12.30;99.90
20479;DHT22;10398;52.490;13.434;2023-11-19T15:19:08;12.20;99.90
20479;DHT22;10398;52.490;13.434;2023-11-19T15:21:34;12.20;99.90
20479;DHT22;10398;52.490;13.434;2023-11-19T15:24:00;12.20;99.90
20479;DHT22;10398;52.490;13.434;2023-11-19T15:26:27;12.10;99.90
20479;DHT22;10398;52.490;13.434;2023-11-19T15:28:53;12.10;99.90
20479;DHT22;10398;52.490;13.434;2023-11-19T15:31:22;12.10;99.90
20479;DHT22;10398;52.490;13.434;2023-11-19T15:33:47;12.10;99.90
20479;DHT22;10398;52.490;13.434;2023-11-19T15:36:13;12.10;99.90
20479;DHT22;10398;52.490;13.434;2023-11-19T15:38:40;12.10;99.90
20479;DHT22;10398;52.490;13.434;2023-11-19T15:41:06;12.00;99.90
20479;DHT22;10398;52.490;13.434;2023-11-19T15:43:33;12.10;99.90
20479;DHT22;10398;52.490;13.434;2023-11-19T15:45:59;12.00;99.90
20479;DHT22;10398;52.490;13.434;2023-11-19T15:48:24;12.00;99.90
20479;DHT22;10398;52.490;13.434;2023-11-19T15:50:51;12.10;99.90
20479;DHT22;10398;52.490;13.434;2023-11-19T15:53:17;12.00;99.90
20479;DHT22;10398;52.490;13.434;2023-11-19T15:55:44;12.00;99.90